หน้าหลัก
METAR-TAF:

METAR-TAF

ท่าอากาศยาน :

ไอเลย์, สกอตแลนด์

ละติจูด: 55-40-55N, ลองจิจูด: 006-15-24W, ความสูง: 16 ม.

การสังเกตสภาพอากาศปัจจุบัน

รายงานได้ทำขึ้นเมื่อ 46 นาทีที่แล้ว ณ เวลา 23:50 UTC
อุณหภูมิ
ความกดอากาศ 1022 hPa

METAR: EGPI 182350Z AUTO /////KT //// ///////// ///// Q1022

เวลา: 01:36 (00:36 UTC)

การพยากรณ์

รายงานได้ทำขึ้นเมื่อ 17 ชั่วโมงและ 1 นาทีที่แล้ว ณ เวลา 07:35 UTC
การพยากรณ์มีผลตั้งแต่วันที่ 18 ณ เวลา 07 UTC จนถึงวันที่ 18 ณ เวลา 15 UTC
ลม 14 นอตจากเหนือ/ตะวันตกเฉียงเหนือ
ทัศนวิสัย 10 กม. หรือมากกว่า
มีเมฆกระจายเป็นบางส่วนที่ความสูง 1200 ฟุต
ชั่วคราว
ตั้งแต่วันที่ 18 ณ เวลา 07 UTC จนถึงวันที่ 18 ณ เวลา 10 UTC
ทัศนวิสัย: 6000 ม.
มีเมฆเป็นส่วนมากเว้นเป็นระยะที่ความสูง 700 ฟุต
ฝนตกเล็กน้อย,

TAF: EGPI 180735Z 1807/1815 34014KT 9999 SCT012 TEMPO 1807/1810 6000 -RA BKN007

สังเกตการณ์สภาพอากาศและพยากรณ์อากาศของสนามบินมากกว่า 4000 แห่ง (รายงาน METAR และ TAF).

สถานีที่ดูได้จะแสดงไว้ด้วยจุดสีเหลืองและสีแดงบนแผนที่.

เลื่อนเมาส์ไปเหนือจุดเพื่อดูชื่อสถานี.

แล้วคลิกเพื่อดูสังเกตการณ์และการพยากรณ์สภาพอากาศ.

ในการเปลี่ยนแผนที่: คลิกที่ปุ่มสีเขียวที่มีกากบาทสีดำเพื่อซูมเข้า; ที่ปุ่มสีเขียวที่มีขีดเพื่อซูมออก; หรือที่ลูกศรสีเขียวเพื่อไปยังแผนที่ที่อยู่ติดกัน.


METAR-TAF: